createdAt,value
2018-08-18T00:00:22.485Z,73.47
2018-08-18T00:02:52.347Z,73.51
2018-08-18T00:05:21.367Z,73.83
2018-08-18T00:07:50.419Z,74.82
2018-08-18T00:10:21.856Z,75.24
2018-08-18T00:12:50.977Z,75.20
2018-08-18T00:15:19.845Z,75.70
2018-08-18T00:17:48.851Z,75.79
2018-08-18T00:20:20.174Z,75.93
2018-08-18T00:22:49.255Z,76.43
2018-08-18T00:25:18.337Z,76.53
2018-08-18T00:27:47.387Z,77.29
2018-08-18T00:30:21.309Z,77.26
2018-08-18T00:32:50.344Z,78.23
2018-08-18T00:35:19.396Z,78.17
2018-08-18T00:37:48.497Z,77.45
2018-08-18T00:40:17.505Z,77.87
2018-08-18T00:42:46.442Z,76.91
2018-08-18T00:45:15.510Z,77.34
2018-08-18T00:47:44.369Z,76.67
2018-08-18T00:50:18.083Z,76.26
2018-08-18T00:52:47.058Z,76.73
2018-08-18T00:55:15.993Z,76.78
2018-08-18T00:57:44.988Z,76.24
2018-08-18T01:00:14.053Z,76.80
2018-08-18T01:02:43.158Z,77.24
2018-08-18T01:07:40.055Z,76.17
2018-08-18T01:10:08.848Z,76.42
2018-08-18T01:12:38.234Z,77.20
2018-08-18T01:15:09.006Z,77.41
2018-08-18T01:17:38.033Z,77.55
2018-08-18T01:20:07.641Z,77.28
2018-08-18T01:22:36.649Z,76.69
2018-08-18T01:25:06.319Z,76.99
2018-08-18T01:27:45.475Z,75.95
2018-08-18T01:30:14.470Z,76.30
2018-08-18T01:32:43.513Z,75.36
2018-08-18T01:35:12.630Z,75.91
2018-08-18T01:37:41.568Z,76.14
2018-08-18T01:40:10.437Z,75.26
2018-08-18T01:42:39.434Z,74.95
2018-08-18T01:45:08.261Z,75.30
2018-08-18T01:47:37.284Z,75.10
2018-08-18T01:50:11.290Z,75.61
2018-08-18T01:52:40.283Z,75.05
2018-08-18T01:55:09.326Z,75.63
2018-08-18T01:57:38.322Z,76.16
2018-08-18T02:00:20.241Z,75.56
2018-08-18T02:02:49.517Z,75.58
2018-08-18T02:05:19.422Z,75.31
2018-08-18T02:07:48.372Z,75.33
2018-08-18T02:10:17.266Z,75.83
2018-08-18T02:12:56.909Z,75.77
2018-08-18T02:15:25.886Z,75.78
2018-08-18T02:17:54.660Z,75.44
2018-08-18T02:20:23.626Z,75.33
2018-08-18T02:22:52.600Z,75.65
2018-08-18T02:25:21.600Z,75.82
2018-08-18T02:27:50.579Z,76.21
2018-08-18T02:30:20.794Z,76.23
2018-08-18T02:32:49.770Z,76.96
2018-08-18T02:35:18.876Z,76.73
2018-08-18T02:37:47.966Z,76.26
2018-08-18T02:40:17.914Z,76.69
2018-08-18T02:42:46.957Z,76.77
2018-08-18T02:45:16.731Z,76.88
2018-08-18T02:47:45.857Z,76.28
2018-08-18T02:50:15.512Z,76.13
2018-08-18T02:52:44.579Z,75.98
2018-08-18T02:55:13.648Z,75.79
2018-08-18T02:57:43.790Z,75.65
2018-08-18T03:00:23.647Z,76.03
2018-08-18T03:02:52.548Z,76.45
2018-08-18T03:05:21.467Z,76.56
2018-08-18T03:07:51.812Z,76.37
2018-08-18T03:10:24.741Z,76.00
2018-08-18T03:12:57.748Z,75.72
2018-08-18T03:16:01.321Z,76.06
2018-08-18T03:18:36.845Z,76.55
2018-08-18T03:21:05.977Z,76.59
2018-08-18T03:23:35.299Z,76.52
2018-08-18T03:26:04.381Z,77.07
2018-08-18T03:28:41.893Z,76.81
2018-08-18T03:31:11.113Z,77.06
2018-08-18T03:33:39.957Z,77.18
2018-08-18T03:36:24.052Z,76.84
2018-08-18T03:38:54.325Z,76.61
2018-08-18T03:41:24.217Z,76.78
2018-08-18T03:43:53.931Z,76.59
2018-08-18T03:46:22.938Z,76.38
2018-08-18T03:48:52.265Z,75.83
2018-08-18T03:51:23.936Z,75.55
2018-08-18T03:53:52.916Z,75.12
2018-08-18T03:56:22.012Z,74.56
2018-08-18T03:58:53.178Z,74.21
2018-08-18T04:01:46.481Z,73.67
2018-08-18T04:04:16.243Z,73.56
2018-08-18T04:06:46.428Z,73.06
2018-08-18T04:09:21.490Z,72.55
2018-08-18T04:11:50.880Z,72.30
2018-08-18T04:14:21.145Z,71.75
2018-08-18T04:16:51.504Z,71.31
2018-08-18T04:19:21.660Z,70.86
2018-08-18T04:21:53.085Z,70.38
2018-08-18T04:24:22.285Z,70.59
2018-08-18T04:26:51.954Z,69.91
2018-08-18T04:29:22.690Z,69.52
2018-08-18T04:31:51.760Z,69.82
2018-08-18T04:34:20.737Z,69.07
2018-08-18T04:36:50.161Z,67.52
2018-08-18T04:39:19.835Z,67.03
2018-08-18T04:41:48.681Z,67.69
2018-08-18T04:44:17.820Z,66.66
2018-08-18T04:46:46.782Z,66.80
2018-08-18T04:49:16.265Z,67.29
2018-08-18T04:51:45.400Z,66.30
2018-08-18T04:54:14.368Z,66.21
2018-08-18T04:56:43.346Z,67.20
2018-08-18T04:59:12.309Z,66.25
2018-08-18T05:01:42.377Z,67.36
2018-08-18T05:04:12.301Z,66.09
2018-08-18T05:06:42.421Z,66.58
2018-08-18T05:09:13.000Z,65.18
2018-08-18T05:11:42.026Z,64.21
2018-08-18T05:14:10.933Z,63.67
2018-08-18T05:16:39.782Z,62.44
2018-08-18T05:19:08.700Z,61.81
2018-08-18T05:21:37.433Z,60.90
2018-08-18T05:24:22.830Z,62.48
2018-08-18T05:26:52.805Z,62.02
2018-08-18T05:29:21.845Z,62.24
2018-08-18T05:31:50.642Z,62.26
2018-08-18T05:34:19.660Z,61.94
2018-08-18T05:36:48.718Z,62.05
2018-08-18T05:39:18.691Z,62.75
2018-08-18T05:41:47.778Z,62.64
2018-08-18T05:44:16.594Z,62.38
2018-08-18T05:46:45.484Z,62.52
2018-08-18T05:49:16.229Z,63.38
2018-08-18T05:51:47.985Z,63.07
2018-08-18T05:54:25.668Z,63.75
2018-08-18T05:56:59.677Z,63.62
2018-08-18T05:59:28.662Z,63.07
2018-08-18T06:01:57.692Z,63.62
2018-08-18T06:04:27.170Z,63.42
2018-08-18T06:06:56.070Z,64.11
2018-08-18T06:09:25.008Z,63.82
2018-08-18T06:11:54.824Z,63.58
2018-08-18T06:14:25.056Z,62.51
2018-08-18T06:16:54.080Z,61.70
2018-08-18T06:19:23.145Z,59.93
2018-08-18T06:21:52.145Z,60.77
2018-08-18T06:24:21.356Z,58.70
2018-08-18T06:26:50.180Z,58.51
2018-08-18T06:29:19.093Z,58.19
2018-08-18T06:31:59.534Z,56.97
2018-08-18T06:34:30.773Z,55.90
2018-08-18T06:37:02.183Z,55.57
2018-08-18T06:39:46.082Z,55.99
2018-08-18T06:42:30.176Z,54.66
2018-08-18T06:44:59.335Z,54.38
2018-08-18T06:47:29.395Z,55.75
2018-08-18T06:49:58.639Z,53.70
2018-08-18T06:52:31.639Z,52.78
2018-08-18T06:55:00.862Z,52.41
2018-08-18T06:57:38.925Z,53.29
2018-08-18T07:00:11.473Z,51.03
2018-08-18T07:02:41.508Z,51.06
2018-08-18T07:05:13.924Z,51.55
2018-08-18T07:07:43.690Z,50.87
2018-08-18T07:10:26.788Z,50.65
2018-08-18T07:12:59.029Z,49.70
2018-08-18T07:15:30.844Z,50.77
2018-08-18T07:17:59.849Z,50.36
2018-08-18T07:20:28.989Z,48.48
2018-08-18T07:22:57.936Z,48.82
2018-08-18T07:25:26.920Z,49.10
2018-08-18T07:28:01.006Z,47.95
2018-08-18T07:30:30.804Z,46.50
2018-08-18T07:33:00.338Z,46.62
2018-08-18T07:35:38.971Z,45.71
2018-08-18T07:38:15.665Z,45.47
2018-08-18T07:41:01.782Z,45.96
2018-08-18T07:43:38.047Z,46.52
2018-08-18T07:46:09.295Z,46.80
2018-08-18T07:48:40.557Z,46.10
2018-08-18T07:51:13.248Z,45.97
2018-08-18T07:53:46.636Z,46.75
2018-08-18T07:56:19.343Z,46.95
2018-08-18T07:58:50.763Z,46.30
2018-08-18T08:02:22.412Z,46.45
2018-08-18T08:04:51.518Z,45.41
2018-08-18T08:07:20.943Z,45.02
2018-08-18T08:09:49.808Z,44.36
2018-08-18T08:12:18.780Z,45.40
2018-08-18T08:14:47.762Z,45.76
2018-08-18T08:17:16.692Z,45.53
2018-08-18T08:19:45.683Z,43.13
2018-08-18T08:22:14.787Z,44.99
2018-08-18T08:24:44.013Z,43.37
2018-08-18T08:27:14.336Z,43.26
2018-08-18T08:29:43.524Z,43.66
2018-08-18T08:32:12.561Z,42.95
2018-08-18T08:34:47.000Z,41.02
2018-08-18T08:37:16.858Z,41.23
2018-08-18T08:39:46.820Z,40.18
2018-08-18T08:42:15.827Z,40.36
2018-08-18T08:44:44.661Z,39.47
2018-08-18T08:47:15.138Z,39.88
2018-08-18T08:49:44.265Z,40.66
2018-08-18T08:52:13.308Z,40.00
2018-08-18T08:54:42.517Z,40.21
2018-08-18T08:57:21.065Z,39.69
2018-08-18T08:59:54.566Z,38.74
2018-08-18T09:02:30.946Z,38.59
2018-08-18T09:05:02.424Z,37.02
2018-08-18T09:07:38.257Z,37.96
2018-08-18T09:10:16.915Z,38.58
2018-08-18T11:54:09.003Z,35.66
2018-08-18T11:56:43.026Z,41.87
2018-08-18T11:59:14.500Z,53.84
2018-08-18T12:01:47.042Z,62.46
2018-08-18T12:04:16.090Z,55.34
2018-08-18T12:06:49.962Z,60.18
2018-08-18T12:09:18.957Z,57.51
2018-08-18T12:11:49.340Z,56.49
2018-08-18T12:14:18.280Z,52.89
2018-08-18T12:16:47.003Z,48.12
2018-08-18T12:19:15.836Z,47.42
2018-08-18T12:21:45.786Z,48.53
2018-08-18T12:24:16.350Z,44.59
2018-08-18T12:26:54.968Z,44.73
2018-08-18T12:29:23.953Z,47.34
2018-08-18T12:31:52.767Z,47.07
2018-08-18T12:34:21.628Z,46.77
2018-08-18T12:36:50.617Z,47.13
2018-08-18T12:39:19.420Z,43.73
2018-08-18T12:41:48.134Z,41.66
2018-08-18T12:44:17.049Z,43.20
2018-08-18T12:46:50.593Z,41.38
2018-08-18T12:49:19.635Z,41.53
2018-08-18T12:51:48.484Z,39.46
2018-08-18T12:54:17.208Z,39.62
2018-08-18T12:56:46.172Z,39.12
2018-08-18T12:59:15.018Z,39.82
2018-08-18T13:01:45.313Z,38.04
2018-08-18T13:04:15.750Z,36.79
2018-08-18T13:06:47.264Z,36.65
2018-08-18T13:09:17.554Z,36.00
2018-08-18T13:11:47.711Z,36.57
2018-08-18T13:14:18.018Z,36.21
2018-08-18T13:16:46.997Z,34.07
2018-08-18T13:19:17.846Z,34.93
2018-08-18T13:21:46.642Z,34.55
2018-08-18T13:24:15.588Z,35.06
2018-08-18T13:26:44.598Z,33.50
2018-08-18T13:29:13.863Z,32.81
2018-08-18T13:31:43.948Z,32.65
2018-08-18T13:34:15.106Z,34.48
2018-08-18T13:36:44.925Z,33.53
2018-08-18T13:39:15.845Z,33.79
2018-08-18T13:41:49.534Z,33.19
2018-08-18T13:44:29.462Z,34.07
2018-08-18T13:47:01.680Z,33.77
2018-08-18T13:49:30.863Z,33.02
2018-08-18T13:51:59.911Z,34.48
2018-08-18T13:54:32.575Z,34.39
2018-08-18T13:57:01.727Z,35.05
2018-08-18T13:59:40.769Z,32.84
2018-08-18T14:02:11.508Z,34.29
2018-08-18T14:04:44.592Z,33.81
2018-08-18T14:07:14.331Z,34.70
2018-08-18T14:09:46.354Z,34.21
2018-08-18T14:12:23.497Z,33.62
2018-08-18T14:14:52.726Z,34.58
2018-08-18T14:17:24.901Z,34.60
2018-08-18T14:19:53.902Z,34.74
2018-08-18T14:22:23.277Z,34.39
2018-08-18T14:24:52.389Z,35.25
2018-08-18T14:27:23.081Z,35.75
2018-08-18T14:29:57.443Z,35.83
2018-08-18T14:32:29.193Z,35.01
2018-08-18T14:35:10.363Z,34.26
2018-08-18T14:37:41.116Z,36.11
2018-08-18T14:40:17.242Z,34.39
2018-08-18T14:42:53.288Z,35.98
2018-08-18T14:45:23.947Z,34.52
2018-08-18T14:47:54.953Z,35.07
2018-08-18T14:50:29.551Z,35.15
2018-08-18T14:52:58.987Z,35.83
2018-08-18T14:55:28.102Z,35.64
2018-08-18T14:58:00.932Z,35.47
2018-08-18T15:00:29.980Z,36.89
2018-08-18T15:02:59.045Z,35.49
2018-08-18T15:05:28.107Z,35.93
2018-08-18T15:07:58.301Z,35.52
2018-08-18T15:10:38.991Z,36.25
2018-08-18T15:13:08.812Z,35.94
2018-08-18T15:15:38.107Z,35.74
2018-08-18T15:18:09.941Z,37.27
2018-08-18T15:20:39.571Z,36.18
2018-08-18T15:23:09.351Z,35.56
2018-08-18T15:25:39.081Z,35.79
2018-08-18T15:28:10.200Z,35.90
2018-08-18T15:30:40.408Z,36.27
2018-08-18T15:33:10.662Z,36.68
2018-08-18T15:35:40.632Z,37.25
2018-08-18T15:38:10.783Z,36.59
2018-08-18T15:40:39.995Z,36.59
2018-08-18T15:43:09.166Z,37.78
2018-08-18T15:46:00.709Z,36.37
2018-08-18T15:48:29.646Z,37.03
2018-08-18T15:50:58.668Z,37.62
2018-08-18T15:53:46.648Z,36.85
2018-08-18T15:56:15.841Z,37.81
2018-08-18T15:58:46.178Z,37.83
2018-08-18T16:01:15.082Z,37.80
2018-08-18T16:03:44.182Z,37.36
2018-08-18T16:06:13.125Z,37.79
2018-08-18T16:08:42.181Z,37.29
2018-08-18T16:11:11.062Z,37.26
2018-08-18T16:13:40.029Z,37.34
2018-08-18T16:16:09.007Z,38.17
2018-08-18T16:18:37.995Z,38.20
2018-08-18T16:21:13.346Z,39.00
2018-08-18T16:23:42.945Z,38.02
2018-08-18T16:26:12.793Z,38.74
2018-08-18T16:28:42.189Z,39.21
2018-08-18T16:31:11.797Z,39.76
2018-08-18T16:33:40.772Z,39.77
2018-08-18T16:36:10.009Z,39.56
2018-08-18T16:38:39.050Z,40.74
2018-08-18T16:41:07.972Z,40.36
2018-08-18T16:43:38.186Z,40.43
2018-08-18T16:46:22.192Z,41.30
2018-08-18T16:48:52.076Z,40.59
2018-08-18T16:51:21.420Z,41.62
2018-08-18T16:53:52.135Z,42.34
2018-08-18T16:56:21.978Z,42.46
2018-08-18T16:58:52.896Z,42.03
2018-08-18T17:01:23.284Z,42.44
2018-08-18T17:03:52.603Z,42.89
2018-08-18T17:06:21.515Z,43.09
2018-08-18T17:08:50.491Z,43.04
2018-08-18T17:11:19.369Z,44.08
2018-08-18T17:13:48.292Z,42.89
2018-08-18T17:16:18.207Z,44.41
2018-08-18T17:18:47.409Z,44.13
2018-08-18T17:21:22.263Z,44.83
2018-08-18T17:23:58.934Z,44.16
2018-08-18T17:26:31.809Z,44.36
2018-08-18T17:29:01.042Z,44.61
2018-08-18T17:31:30.995Z,45.58
2018-08-18T17:34:00.189Z,44.65
2018-08-18T17:36:31.277Z,46.00
2018-08-18T17:39:06.382Z,45.59
2018-08-18T17:41:39.430Z,46.19
2018-08-18T17:44:14.236Z,46.46
2018-08-18T17:46:52.702Z,45.46
2018-08-18T17:49:27.132Z,45.94
2018-08-18T17:52:03.385Z,45.65
2018-08-18T17:54:38.897Z,46.58
2018-08-18T17:57:13.526Z,46.06
2018-08-18T17:59:48.366Z,46.06
2018-08-18T18:02:17.443Z,46.43
2018-08-18T18:04:54.173Z,46.61
2018-08-18T18:07:23.342Z,46.62
2018-08-18T18:09:55.969Z,47.72
2018-08-18T18:12:32.687Z,47.14
2018-08-18T18:15:01.882Z,48.15
2018-08-18T18:17:34.022Z,49.31
2018-08-18T18:20:03.264Z,49.29
2018-08-18T18:22:42.632Z,49.94
2018-08-18T18:25:11.962Z,50.65
2018-08-18T18:27:44.572Z,51.14
2018-08-18T18:30:16.926Z,51.45
2018-08-18T18:32:49.785Z,52.84
2018-08-18T18:35:20.703Z,51.92
2018-08-18T18:37:53.587Z,52.02
2018-08-18T18:40:22.788Z,52.26
2018-08-18T18:42:52.062Z,51.83
2018-08-18T18:45:24.394Z,52.40
2018-08-18T18:48:00.537Z,53.08
2018-08-18T18:50:32.274Z,52.54
2018-08-18T18:53:01.582Z,52.53
2018-08-18T18:55:43.079Z,52.96
2018-08-18T18:58:14.694Z,54.09
2018-08-18T19:00:51.795Z,54.06
2018-08-18T19:03:21.199Z,55.07
2018-08-18T19:05:54.679Z,55.13
2018-08-18T19:08:25.644Z,54.76
2018-08-18T19:10:57.124Z,55.59
2018-08-18T19:13:31.882Z,56.52
2018-08-18T19:16:00.990Z,55.98
2018-08-18T19:18:29.921Z,55.43
2018-08-18T19:20:59.484Z,54.84
2018-08-18T19:23:28.791Z,55.49
2018-08-18T19:25:58.699Z,56.49
2018-08-18T19:28:28.354Z,56.79
2018-08-18T19:30:58.838Z,57.38
2018-08-18T19:33:28.803Z,56.78
2018-08-18T19:36:02.150Z,57.88
2018-08-18T19:38:33.482Z,58.57
2018-08-18T19:41:03.908Z,59.08
2018-08-18T19:43:34.359Z,59.58
2018-08-18T19:46:11.671Z,60.99
2018-08-18T19:48:41.194Z,60.45
2018-08-18T19:51:10.741Z,61.40
2018-08-18T19:56:30.435Z,60.95
2018-08-18T19:59:04.687Z,61.54
2018-08-18T20:01:36.843Z,61.53
2018-08-18T20:04:14.977Z,61.08
2018-08-18T20:06:48.107Z,61.63
2018-08-18T20:09:17.302Z,60.09
2018-08-18T20:11:46.197Z,60.16
2018-08-18T20:14:16.112Z,59.87
2018-08-18T20:16:47.311Z,60.43
2018-08-18T20:19:16.449Z,60.28
2018-08-18T20:21:45.568Z,60.58
2018-08-18T20:24:14.692Z,59.60
2018-08-18T20:26:43.706Z,60.51
2018-08-18T20:29:19.006Z,59.59
2018-08-18T20:31:58.984Z,59.77
2018-08-18T20:34:32.877Z,60.55
2018-08-18T20:37:14.010Z,60.64
2018-08-18T20:42:42.777Z,60.63
2018-08-18T21:20:07.140Z,62.44
2018-08-18T21:22:36.823Z,63.25
2018-08-18T21:25:07.680Z,62.90
2018-08-18T21:27:40.124Z,63.50
2018-08-18T21:30:15.837Z,62.91
2018-08-18T21:32:44.888Z,63.75
2018-08-18T21:35:13.984Z,64.22
2018-08-18T21:37:43.298Z,64.38
2018-08-18T21:40:12.411Z,64.52
2018-08-18T21:42:41.480Z,64.76
2018-08-18T21:45:12.277Z,64.80
2018-08-18T21:47:42.165Z,65.76
2018-08-18T21:50:11.287Z,64.87
2018-08-18T21:52:41.399Z,65.26
2018-08-18T21:55:10.408Z,65.30
2018-08-18T21:57:52.763Z,65.28
2018-08-18T22:00:21.950Z,65.05
2018-08-18T22:02:51.116Z,64.80
2018-08-18T22:05:20.193Z,65.34
2018-08-18T22:07:51.558Z,65.60
2018-08-18T22:10:20.943Z,66.19
2018-08-18T22:12:50.123Z,66.02
2018-08-18T22:15:21.020Z,66.45
2018-08-18T22:17:51.125Z,66.08
2018-08-18T22:20:21.562Z,66.60
2018-08-18T22:22:50.767Z,68.26
2018-08-18T22:25:19.849Z,68.21
2018-08-18T22:27:53.261Z,68.81
2018-08-18T22:33:15.262Z,69.88
2018-08-18T22:35:55.949Z,69.44
2018-08-18T22:41:56.752Z,71.16
2018-08-18T22:44:25.880Z,72.01
2018-08-18T22:46:54.815Z,71.18
2018-08-18T22:49:24.791Z,71.49
2018-08-18T22:51:55.969Z,72.66
2018-08-18T22:54:24.955Z,72.11
2018-08-18T22:57:02.226Z,72.11
2018-08-18T22:59:31.524Z,72.14
2018-08-18T23:02:00.605Z,72.48
2018-08-18T23:04:35.228Z,73.15
2018-08-18T23:07:05.642Z,73.25
2018-08-18T23:09:34.567Z,73.46
2018-08-18T23:12:05.515Z,74.04
2018-08-18T23:14:35.936Z,74.43
2018-08-18T23:17:05.116Z,75.10
2018-08-18T23:19:34.291Z,75.10
2018-08-18T23:22:03.961Z,75.46
2018-08-18T23:24:36.912Z,74.66
2018-08-18T23:27:06.287Z,74.74
2018-08-18T23:29:37.868Z,75.06
2018-08-18T23:32:40.710Z,75.98
2018-08-18T23:35:09.837Z,75.58
2018-08-18T23:37:39.071Z,75.82
2018-08-18T23:40:08.297Z,76.35
2018-08-18T23:42:37.301Z,76.22
2018-08-18T23:45:07.462Z,76.61
2018-08-18T23:47:36.486Z,76.61
2018-08-18T23:50:06.033Z,76.39
2018-08-18T23:52:47.617Z,76.76
2018-08-18T23:55:16.972Z,77.43
2018-08-18T23:57:45.798Z,76.97
